sensor_id;sensor_type;location;lat;lon;timestamp;P1;durP1;ratioP1;P2;durP2;ratioP2
4278;SDS011;2153;47.744;10.580;2023-04-03T00:00:38;22.50;;;10.53;;
4278;SDS011;2153;47.744;10.580;2023-04-03T00:03:05;26.57;;;10.63;;
4278;SDS011;2153;47.744;10.580;2023-04-03T00:05:31;26.40;;;11.10;;
4278;SDS011;2153;47.744;10.580;2023-04-03T00:08:00;25.10;;;11.47;;
4278;SDS011;2153;47.744;10.580;2023-04-03T00:10:27;21.87;;;9.97;;
4278;SDS011;2153;47.744;10.580;2023-04-03T00:12:53;29.70;;;12.13;;
4278;SDS011;2153;47.744;10.580;2023-04-03T00:15:20;24.10;;;12.00;;
4278;SDS011;2153;47.744;10.580;2023-04-03T00:17:47;24.07;;;10.57;;
4278;SDS011;2153;47.744;10.580;2023-04-03T00:20:13;31.40;;;11.17;;
4278;SDS011;2153;47.744;10.580;2023-04-03T00:22:40;24.83;;;11.43;;
4278;SDS011;2153;47.744;10.580;2023-04-03T00:25:09;23.03;;;9.93;;
4278;SDS011;2153;47.744;10.580;2023-04-03T00:27:36;23.93;;;10.77;;
4278;SDS011;2153;47.744;10.580;2023-04-03T00:30:04;24.47;;;11.90;;
4278;SDS011;2153;47.744;10.580;2023-04-03T00:32:33;26.33;;;12.27;;
4278;SDS011;2153;47.744;10.580;2023-04-03T00:34:59;23.03;;;11.00;;
4278;SDS011;2153;47.744;10.580;2023-04-03T00:37:26;24.37;;;10.73;;
4278;SDS011;2153;47.744;10.580;2023-04-03T00:39:53;26.77;;;11.30;;
4278;SDS011;2153;47.744;10.580;2023-04-03T00:42:21;23.97;;;11.50;;
4278;SDS011;2153;47.744;10.580;2023-04-03T00:47:51;25.97;;;11.27;;
4278;SDS011;2153;47.744;10.580;2023-04-03T00:50:17;23.57;;;11.07;;
4278;SDS011;2153;47.744;10.580;2023-04-03T00:52:45;25.90;;;11.33;;
4278;SDS011;2153;47.744;10.580;2023-04-03T00:55:14;25.30;;;10.97;;
4278;SDS011;2153;47.744;10.580;2023-04-03T00:57:43;25.73;;;10.90;;
4278;SDS011;2153;47.744;10.580;2023-04-03T01:00:13;27.67;;;12.63;;
4278;SDS011;2153;47.744;10.580;2023-04-03T01:02:42;24.60;;;11.60;;
4278;SDS011;2153;47.744;10.580;2023-04-03T01:05:09;25.97;;;11.73;;
4278;SDS011;2153;47.744;10.580;2023-04-03T01:07:36;29.83;;;12.07;;
4278;SDS011;2153;47.744;10.580;2023-04-03T01:10:05;25.77;;;12.00;;
4278;SDS011;2153;47.744;10.580;2023-04-03T01:12:34;26.00;;;11.77;;
4278;SDS011;2153;47.744;10.580;2023-04-03T01:15:04;23.20;;;11.93;;
4278;SDS011;2153;47.744;10.580;2023-04-03T01:17:35;24.20;;;11.20;;
4278;SDS011;2153;47.744;10.580;2023-04-03T01:20:30;26.43;;;12.30;;
4278;SDS011;2153;47.744;10.580;2023-04-03T01:23:17;26.27;;;11.20;;
4278;SDS011;2153;47.744;10.580;2023-04-03T01:25:52;26.40;;;11.43;;
4278;SDS011;2153;47.744;10.580;2023-04-03T01:28:21;26.30;;;11.63;;
4278;SDS011;2153;47.744;10.580;2023-04-03T01:30:53;25.67;;;11.53;;
4278;SDS011;2153;47.744;10.580;2023-04-03T01:33:28;27.60;;;12.60;;
4278;SDS011;2153;47.744;10.580;2023-04-03T01:35:55;26.60;;;12.43;;
4278;SDS011;2153;47.744;10.580;2023-04-03T01:38:22;24.93;;;11.80;;
4278;SDS011;2153;47.744;10.580;2023-04-03T01:40:49;26.10;;;11.03;;
4278;SDS011;2153;47.744;10.580;2023-04-03T01:43:16;25.30;;;10.70;;
4278;SDS011;2153;47.744;10.580;2023-04-03T01:45:43;26.10;;;12.50;;
4278;SDS011;2153;47.744;10.580;2023-04-03T01:48:09;29.63;;;11.07;;
4278;SDS011;2153;47.744;10.580;2023-04-03T01:50:37;22.50;;;10.77;;
4278;SDS011;2153;47.744;10.580;2023-04-03T01:53:04;22.33;;;10.73;;
4278;SDS011;2153;47.744;10.580;2023-04-03T01:55:31;26.43;;;11.73;;
4278;SDS011;2153;47.744;10.580;2023-04-03T01:57:58;23.87;;;11.40;;
4278;SDS011;2153;47.744;10.580;2023-04-03T02:00:25;31.07;;;11.40;;
4278;SDS011;2153;47.744;10.580;2023-04-03T02:02:52;26.60;;;12.03;;
4278;SDS011;2153;47.744;10.580;2023-04-03T02:05:19;26.40;;;12.07;;
4278;SDS011;2153;47.744;10.580;2023-04-03T02:07:47;25.53;;;12.50;;
4278;SDS011;2153;47.744;10.580;2023-04-03T02:10:13;23.13;;;11.27;;
4278;SDS011;2153;47.744;10.580;2023-04-03T02:12:40;24.80;;;11.53;;
4278;SDS011;2153;47.744;10.580;2023-04-03T02:15:07;22.80;;;11.50;;
4278;SDS011;2153;47.744;10.580;2023-04-03T02:17:35;31.63;;;11.07;;
4278;SDS011;2153;47.744;10.580;2023-04-03T02:20:02;22.20;;;10.00;;
4278;SDS011;2153;47.744;10.580;2023-04-03T02:22:30;24.23;;;11.80;;
4278;SDS011;2153;47.744;10.580;2023-04-03T02:24:58;22.73;;;10.57;;
4278;SDS011;2153;47.744;10.580;2023-04-03T02:27:25;24.67;;;11.67;;
4278;SDS011;2153;47.744;10.580;2023-04-03T02:29:52;24.60;;;11.80;;
4278;SDS011;2153;47.744;10.580;2023-04-03T02:32:19;24.50;;;11.13;;
4278;SDS011;2153;47.744;10.580;2023-04-03T02:34:46;23.30;;;10.57;;
4278;SDS011;2153;47.744;10.580;2023-04-03T02:37:12;25.50;;;11.80;;
4278;SDS011;2153;47.744;10.580;2023-04-03T02:39:39;22.73;;;10.43;;
4278;SDS011;2153;47.744;10.580;2023-04-03T02:42:07;24.77;;;11.30;;
4278;SDS011;2153;47.744;10.580;2023-04-03T02:44:34;24.20;;;11.00;;
4278;SDS011;2153;47.744;10.580;2023-04-03T02:47:01;21.13;;;10.40;;
4278;SDS011;2153;47.744;10.580;2023-04-03T02:49:28;29.53;;;11.40;;
4278;SDS011;2153;47.744;10.580;2023-04-03T02:51:55;23.30;;;9.50;;
4278;SDS011;2153;47.744;10.580;2023-04-03T02:54:21;26.73;;;9.73;;
4278;SDS011;2153;47.744;10.580;2023-04-03T02:56:49;30.80;;;11.07;;
4278;SDS011;2153;47.744;10.580;2023-04-03T02:59:17;21.57;;;10.20;;
4278;SDS011;2153;47.744;10.580;2023-04-03T03:01:44;24.13;;;10.23;;
4278;SDS011;2153;47.744;10.580;2023-04-03T03:04:11;24.07;;;10.17;;
4278;SDS011;2153;47.744;10.580;2023-04-03T03:06:38;23.37;;;10.00;;
4278;SDS011;2153;47.744;10.580;2023-04-03T03:09:05;21.10;;;9.70;;
4278;SDS011;2153;47.744;10.580;2023-04-03T03:11:31;21.63;;;10.03;;
4278;SDS011;2153;47.744;10.580;2023-04-03T03:13:58;23.03;;;10.53;;
4278;SDS011;2153;47.744;10.580;2023-04-03T03:16:26;23.90;;;10.80;;
4278;SDS011;2153;47.744;10.580;2023-04-03T03:18:53;23.77;;;9.63;;
4278;SDS011;2153;47.744;10.580;2023-04-03T03:21:20;24.70;;;10.27;;
4278;SDS011;2153;47.744;10.580;2023-04-03T03:23:46;25.70;;;10.50;;
4278;SDS011;2153;47.744;10.580;2023-04-03T03:26:13;22.17;;;10.03;;
4278;SDS011;2153;47.744;10.580;2023-04-03T03:28:40;22.67;;;9.00;;
4278;SDS011;2153;47.744;10.580;2023-04-03T03:31:07;23.87;;;10.57;;
4278;SDS011;2153;47.744;10.580;2023-04-03T03:33:36;24.23;;;10.83;;
4278;SDS011;2153;47.744;10.580;2023-04-03T03:36:03;22.60;;;10.27;;
4278;SDS011;2153;47.744;10.580;2023-04-03T03:38:30;24.90;;;11.23;;
4278;SDS011;2153;47.744;10.580;2023-04-03T03:40:57;23.07;;;10.07;;
4278;SDS011;2153;47.744;10.580;2023-04-03T03:43:24;23.70;;;10.63;;
4278;SDS011;2153;47.744;10.580;2023-04-03T03:45:51;25.20;;;11.47;;
4278;SDS011;2153;47.744;10.580;2023-04-03T03:48:18;31.57;;;12.40;;
4278;SDS011;2153;47.744;10.580;2023-04-03T03:50:48;26.83;;;11.93;;
4278;SDS011;2153;47.744;10.580;2023-04-03T03:53:15;23.90;;;10.40;;
4278;SDS011;2153;47.744;10.580;2023-04-03T03:55:42;24.03;;;10.43;;
4278;SDS011;2153;47.744;10.580;2023-04-03T03:58:09;22.93;;;11.27;;
4278;SDS011;2153;47.744;10.580;2023-04-03T04:00:36;26.17;;;10.67;;
4278;SDS011;2153;47.744;10.580;2023-04-03T04:03:03;25.77;;;11.60;;
4278;SDS011;2153;47.744;10.580;2023-04-03T04:05:30;21.57;;;11.00;;
4278;SDS011;2153;47.744;10.580;2023-04-03T04:07:58;24.43;;;10.37;;
4278;SDS011;2153;47.744;10.580;2023-04-03T04:10:25;24.17;;;10.70;;
4278;SDS011;2153;47.744;10.580;2023-04-03T04:12:51;23.33;;;10.80;;
4278;SDS011;2153;47.744;10.580;2023-04-03T04:15:18;30.37;;;10.90;;
4278;SDS011;2153;47.744;10.580;2023-04-03T04:17:46;23.97;;;9.77;;
4278;SDS011;2153;47.744;10.580;2023-04-03T04:20:13;22.93;;;10.67;;
4278;SDS011;2153;47.744;10.580;2023-04-03T04:22:40;21.47;;;9.77;;
4278;SDS011;2153;47.744;10.580;2023-04-03T04:25:08;23.67;;;10.00;;
4278;SDS011;2153;47.744;10.580;2023-04-03T04:27:35;22.40;;;9.93;;
4278;SDS011;2153;47.744;10.580;2023-04-03T04:30:02;21.57;;;10.00;;
4278;SDS011;2153;47.744;10.580;2023-04-03T04:32:30;22.83;;;10.07;;
4278;SDS011;2153;47.744;10.580;2023-04-03T04:34:57;22.33;;;10.00;;
4278;SDS011;2153;47.744;10.580;2023-04-03T04:37:23;23.37;;;9.90;;
4278;SDS011;2153;47.744;10.580;2023-04-03T04:39:50;23.40;;;10.20;;
4278;SDS011;2153;47.744;10.580;2023-04-03T04:42:18;22.57;;;9.80;;
4278;SDS011;2153;47.744;10.580;2023-04-03T04:44:45;19.40;;;8.83;;
4278;SDS011;2153;47.744;10.580;2023-04-03T04:47:12;25.60;;;10.13;;
4278;SDS011;2153;47.744;10.580;2023-04-03T04:49:38;23.23;;;11.07;;
4278;SDS011;2153;47.744;10.580;2023-04-03T04:52:05;21.70;;;9.60;;
4278;SDS011;2153;47.744;10.580;2023-04-03T04:54:32;23.70;;;9.57;;
4278;SDS011;2153;47.744;10.580;2023-04-03T04:56:59;22.97;;;9.70;;
4278;SDS011;2153;47.744;10.580;2023-04-03T04:59:27;20.67;;;9.30;;
4278;SDS011;2153;47.744;10.580;2023-04-03T05:01:53;23.70;;;9.80;;
4278;SDS011;2153;47.744;10.580;2023-04-03T05:04:20;28.50;;;8.93;;
4278;SDS011;2153;47.744;10.580;2023-04-03T05:06:47;20.10;;;8.00;;
4278;SDS011;2153;47.744;10.580;2023-04-03T05:09:13;19.90;;;8.20;;
4278;SDS011;2153;47.744;10.580;2023-04-03T05:11:40;22.80;;;9.50;;
4278;SDS011;2153;47.744;10.580;2023-04-03T05:14:08;18.40;;;7.67;;
4278;SDS011;2153;47.744;10.580;2023-04-03T05:16:36;23.53;;;7.80;;
4278;SDS011;2153;47.744;10.580;2023-04-03T05:19:02;18.77;;;8.17;;
4278;SDS011;2153;47.744;10.580;2023-04-03T05:21:30;20.10;;;7.83;;
4278;SDS011;2153;47.744;10.580;2023-04-03T05:23:57;19.07;;;7.40;;
4278;SDS011;2153;47.744;10.580;2023-04-03T05:26:27;21.07;;;8.97;;
4278;SDS011;2153;47.744;10.580;2023-04-03T05:28:54;21.90;;;8.87;;
4278;SDS011;2153;47.744;10.580;2023-04-03T05:31:21;21.80;;;9.17;;
4278;SDS011;2153;47.744;10.580;2023-04-03T05:33:49;19.13;;;8.50;;
4278;SDS011;2153;47.744;10.580;2023-04-03T05:36:16;22.37;;;9.77;;
4278;SDS011;2153;47.744;10.580;2023-04-03T05:38:43;20.77;;;8.53;;
4278;SDS011;2153;47.744;10.580;2023-04-03T05:41:10;20.70;;;8.93;;
4278;SDS011;2153;47.744;10.580;2023-04-03T05:43:37;20.70;;;8.87;;
4278;SDS011;2153;47.744;10.580;2023-04-03T05:46:04;20.77;;;8.27;;
4278;SDS011;2153;47.744;10.580;2023-04-03T05:48:34;19.83;;;8.57;;
4278;SDS011;2153;47.744;10.580;2023-04-03T05:51:03;19.43;;;8.60;;
4278;SDS011;2153;47.744;10.580;2023-04-03T05:53:31;21.10;;;8.77;;
4278;SDS011;2153;47.744;10.580;2023-04-03T05:56:00;18.27;;;7.50;;
4278;SDS011;2153;47.744;10.580;2023-04-03T05:58:27;18.60;;;7.73;;
4278;SDS011;2153;47.744;10.580;2023-04-03T06:00:53;18.30;;;7.70;;
4278;SDS011;2153;47.744;10.580;2023-04-03T06:03:20;18.67;;;7.80;;
4278;SDS011;2153;47.744;10.580;2023-04-03T06:05:47;20.73;;;8.50;;
4278;SDS011;2153;47.744;10.580;2023-04-03T06:08:15;19.20;;;8.10;;
4278;SDS011;2153;47.744;10.580;2023-04-03T06:10:42;18.83;;;7.20;;
4278;SDS011;2153;47.744;10.580;2023-04-03T06:13:09;21.60;;;8.40;;
4278;SDS011;2153;47.744;10.580;2023-04-03T06:15:35;18.63;;;7.90;;
4278;SDS011;2153;47.744;10.580;2023-04-03T06:18:03;19.80;;;8.40;;
4278;SDS011;2153;47.744;10.580;2023-04-03T06:20:30;21.33;;;8.43;;
4278;SDS011;2153;47.744;10.580;2023-04-03T06:22:57;19.67;;;8.77;;
4278;SDS011;2153;47.744;10.580;2023-04-03T06:25:25;19.70;;;8.37;;
4278;SDS011;2153;47.744;10.580;2023-04-03T06:27:51;22.87;;;9.10;;
4278;SDS011;2153;47.744;10.580;2023-04-03T06:30:20;19.30;;;8.40;;
4278;SDS011;2153;47.744;10.580;2023-04-03T06:32:47;27.80;;;12.03;;
4278;SDS011;2153;47.744;10.580;2023-04-03T06:35:14;22.03;;;10.40;;
4278;SDS011;2153;47.744;10.580;2023-04-03T06:37:41;25.97;;;11.40;;
4278;SDS011;2153;47.744;10.580;2023-04-03T06:40:09;23.80;;;10.70;;
4278;SDS011;2153;47.744;10.580;2023-04-03T06:42:46;31.40;;;11.33;;
4278;SDS011;2153;47.744;10.580;2023-04-03T06:45:12;25.23;;;11.27;;
4278;SDS011;2153;47.744;10.580;2023-04-03T06:47:39;26.70;;;11.93;;
4278;SDS011;2153;47.744;10.580;2023-04-03T06:50:06;26.10;;;11.50;;
4278;SDS011;2153;47.744;10.580;2023-04-03T06:52:36;26.47;;;12.13;;
4278;SDS011;2153;47.744;10.580;2023-04-03T06:55:04;25.77;;;12.03;;
4278;SDS011;2153;47.744;10.580;2023-04-03T06:57:32;25.17;;;11.13;;
4278;SDS011;2153;47.744;10.580;2023-04-03T07:00:00;31.07;;;15.00;;
4278;SDS011;2153;47.744;10.580;2023-04-03T07:02:28;26.40;;;12.50;;
4278;SDS011;2153;47.744;10.580;2023-04-03T07:04:54;28.27;;;12.77;;
4278;SDS011;2153;47.744;10.580;2023-04-03T07:07:21;35.03;;;13.53;;
4278;SDS011;2153;47.744;10.580;2023-04-03T07:09:48;31.97;;;14.23;;
4278;SDS011;2153;47.744;10.580;2023-04-03T07:12:15;36.40;;;14.90;;
4278;SDS011;2153;47.744;10.580;2023-04-03T07:14:42;31.57;;;14.30;;
4278;SDS011;2153;47.744;10.580;2023-04-03T07:17:10;28.93;;;14.30;;
4278;SDS011;2153;47.744;10.580;2023-04-03T07:19:36;29.67;;;14.43;;
4278;SDS011;2153;47.744;10.580;2023-04-03T07:22:03;32.10;;;14.13;;
4278;SDS011;2153;47.744;10.580;2023-04-03T07:24:30;29.73;;;14.17;;
4278;SDS011;2153;47.744;10.580;2023-04-03T07:26:57;29.23;;;15.57;;
4278;SDS011;2153;47.744;10.580;2023-04-03T07:29:23;31.10;;;15.10;;
4278;SDS011;2153;47.744;10.580;2023-04-03T07:31:50;29.67;;;14.23;;
4278;SDS011;2153;47.744;10.580;2023-04-03T07:34:18;33.40;;;15.10;;
4278;SDS011;2153;47.744;10.580;2023-04-03T07:36:45;28.20;;;13.70;;
4278;SDS011;2153;47.744;10.580;2023-04-03T07:39:12;29.17;;;14.47;;
4278;SDS011;2153;47.744;10.580;2023-04-03T07:41:38;31.00;;;16.60;;
4278;SDS011;2153;47.744;10.580;2023-04-03T07:44:05;29.57;;;14.67;;
4278;SDS011;2153;47.744;10.580;2023-04-03T07:46:34;27.70;;;13.87;;
4278;SDS011;2153;47.744;10.580;2023-04-03T07:49:01;32.80;;;15.13;;
4278;SDS011;2153;47.744;10.580;2023-04-03T07:51:29;32.40;;;15.43;;
4278;SDS011;2153;47.744;10.580;2023-04-03T07:53:56;33.70;;;16.17;;
4278;SDS011;2153;47.744;10.580;2023-04-03T07:56:23;31.90;;;13.90;;
4278;SDS011;2153;47.744;10.580;2023-04-03T07:58:51;36.27;;;16.37;;
4278;SDS011;2153;47.744;10.580;2023-04-03T08:01:18;31.43;;;15.80;;
4278;SDS011;2153;47.744;10.580;2023-04-03T08:03:45;28.23;;;13.70;;
4278;SDS011;2153;47.744;10.580;2023-04-03T08:06:12;32.07;;;14.80;;
4278;SDS011;2153;47.744;10.580;2023-04-03T08:08:41;32.43;;;15.77;;
4278;SDS011;2153;47.744;10.580;2023-04-03T08:11:09;31.80;;;14.63;;
4278;SDS011;2153;47.744;10.580;2023-04-03T08:13:36;30.90;;;14.93;;
4278;SDS011;2153;47.744;10.580;2023-04-03T08:16:08;33.03;;;14.37;;
4278;SDS011;2153;47.744;10.580;2023-04-03T08:18:36;34.43;;;14.40;;
4278;SDS011;2153;47.744;10.580;2023-04-03T08:21:05;30.60;;;13.70;;
4278;SDS011;2153;47.744;10.580;2023-04-03T08:23:33;30.87;;;15.27;;
4278;SDS011;2153;47.744;10.580;2023-04-03T08:26:05;32.23;;;15.60;;
4278;SDS011;2153;47.744;10.580;2023-04-03T08:28:33;32.13;;;14.30;;
4278;SDS011;2153;47.744;10.580;2023-04-03T08:31:02;27.53;;;12.23;;
4278;SDS011;2153;47.744;10.580;2023-04-03T08:33:30;30.37;;;14.30;;
4278;SDS011;2153;47.744;10.580;2023-04-03T08:35:57;30.00;;;14.17;;
4278;SDS011;2153;47.744;10.580;2023-04-03T08:38:24;25.93;;;12.90;;
4278;SDS011;2153;47.744;10.580;2023-04-03T08:40:59;29.47;;;13.27;;
4278;SDS011;2153;47.744;10.580;2023-04-03T08:43:31;21.87;;;10.60;;
4278;SDS011;2153;47.744;10.580;2023-04-03T08:46:05;24.73;;;11.93;;
4278;SDS011;2153;47.744;10.580;2023-04-03T08:48:36;25.23;;;12.50;;
4278;SDS011;2153;47.744;10.580;2023-04-03T08:51:08;27.77;;;12.70;;
4278;SDS011;2153;47.744;10.580;2023-04-03T08:53:40;24.57;;;10.93;;
4278;SDS011;2153;47.744;10.580;2023-04-03T08:56:10;23.47;;;10.90;;
4278;SDS011;2153;47.744;10.580;2023-04-03T08:58:42;24.10;;;11.43;;
4278;SDS011;2153;47.744;10.580;2023-04-03T09:01:17;23.60;;;10.23;;
4278;SDS011;2153;47.744;10.580;2023-04-03T09:03:46;22.40;;;10.00;;
4278;SDS011;2153;47.744;10.580;2023-04-03T09:06:13;21.90;;;9.67;;
4278;SDS011;2153;47.744;10.580;2023-04-03T09:08:43;23.90;;;9.40;;
4278;SDS011;2153;47.744;10.580;2023-04-03T09:11:16;25.80;;;9.93;;
4278;SDS011;2153;47.744;10.580;2023-04-03T09:13:52;22.80;;;9.00;;
4278;SDS011;2153;47.744;10.580;2023-04-03T09:16:26;18.70;;;7.93;;
4278;SDS011;2153;47.744;10.580;2023-04-03T09:19:02;19.83;;;8.13;;
4278;SDS011;2153;47.744;10.580;2023-04-03T09:21:38;20.20;;;8.00;;
4278;SDS011;2153;47.744;10.580;2023-04-03T09:24:07;18.13;;;7.57;;
4278;SDS011;2153;47.744;10.580;2023-04-03T09:26:39;17.83;;;7.87;;
4278;SDS011;2153;47.744;10.580;2023-04-03T09:29:12;18.17;;;7.40;;
4278;SDS011;2153;47.744;10.580;2023-04-03T09:31:44;18.63;;;8.23;;
4278;SDS011;2153;47.744;10.580;2023-04-03T09:34:13;15.90;;;6.50;;
4278;SDS011;2153;47.744;10.580;2023-04-03T09:36:47;17.60;;;6.57;;
4278;SDS011;2153;47.744;10.580;2023-04-03T09:39:15;17.00;;;6.90;;
4278;SDS011;2153;47.744;10.580;2023-04-03T09:41:56;16.20;;;5.40;;
4278;SDS011;2153;47.744;10.580;2023-04-03T09:44:26;15.60;;;6.27;;
4278;SDS011;2153;47.744;10.580;2023-04-03T09:46:55;15.40;;;5.67;;
4278;SDS011;2153;47.744;10.580;2023-04-03T09:49:22;14.17;;;5.50;;
4278;SDS011;2153;47.744;10.580;2023-04-03T09:51:49;15.80;;;5.40;;
4278;SDS011;2153;47.744;10.580;2023-04-03T09:57:01;13.60;;;4.80;;
4278;SDS011;2153;47.744;10.580;2023-04-03T09:59:34;14.63;;;5.20;;
4278;SDS011;2153;47.744;10.580;2023-04-03T10:02:20;14.73;;;5.23;;
4278;SDS011;2153;47.744;10.580;2023-04-03T10:04:56;15.90;;;5.80;;
4278;SDS011;2153;47.744;10.580;2023-04-03T10:07:27;18.67;;;5.67;;
4278;SDS011;2153;47.744;10.580;2023-04-03T10:09:56;14.03;;;4.40;;
4278;SDS011;2153;47.744;10.580;2023-04-03T10:12:25;14.97;;;4.63;;
4278;SDS011;2153;47.744;10.580;2023-04-03T10:14:56;13.53;;;4.70;;
4278;SDS011;2153;47.744;10.580;2023-04-03T10:17:26;12.10;;;3.97;;
4278;SDS011;2153;47.744;10.580;2023-04-03T10:20:04;13.23;;;4.40;;
4278;SDS011;2153;47.744;10.580;2023-04-03T10:22:37;15.00;;;4.00;;
4278;SDS011;2153;47.744;10.580;2023-04-03T10:25:10;12.63;;;4.40;;
4278;SDS011;2153;47.744;10.580;2023-04-03T10:27:46;14.80;;;3.83;;
4278;SDS011;2153;47.744;10.580;2023-04-03T10:30:34;12.60;;;4.00;;
4278;SDS011;2153;47.744;10.580;2023-04-03T10:33:11;15.03;;;5.13;;
4278;SDS011;2153;47.744;10.580;2023-04-03T10:35:51;12.73;;;3.83;;
4278;SDS011;2153;47.744;10.580;2023-04-03T10:38:30;14.23;;;5.00;;
4278;SDS011;2153;47.744;10.580;2023-04-03T10:41:02;13.90;;;4.70;;
4278;SDS011;2153;47.744;10.580;2023-04-03T10:43:36;13.97;;;4.43;;
4278;SDS011;2153;47.744;10.580;2023-04-03T10:46:09;14.17;;;4.87;;
4278;SDS011;2153;47.744;10.580;2023-04-03T10:48:44;13.30;;;4.27;;
4278;SDS011;2153;47.744;10.580;2023-04-03T10:51:25;16.23;;;4.70;;
4278;SDS011;2153;47.744;10.580;2023-04-03T10:53:59;13.87;;;4.27;;
4278;SDS011;2153;47.744;10.580;2023-04-03T10:56:32;14.03;;;4.57;;
4278;SDS011;2153;47.744;10.580;2023-04-03T10:59:08;13.60;;;4.20;;
4278;SDS011;2153;47.744;10.580;2023-04-03T11:01:45;12.17;;;4.17;;
4278;SDS011;2153;47.744;10.580;2023-04-03T11:04:16;13.20;;;4.27;;
4278;SDS011;2153;47.744;10.580;2023-04-03T11:06:47;13.63;;;4.87;;
4278;SDS011;2153;47.744;10.580;2023-04-03T11:09:20;13.73;;;4.80;;
4278;SDS011;2153;47.744;10.580;2023-04-03T11:11:50;13.83;;;4.50;;
4278;SDS011;2153;47.744;10.580;2023-04-03T11:14:21;13.20;;;4.17;;
4278;SDS011;2153;47.744;10.580;2023-04-03T11:16:57;13.40;;;4.10;;
4278;SDS011;2153;47.744;10.580;2023-04-03T11:19:33;14.43;;;5.17;;
4278;SDS011;2153;47.744;10.580;2023-04-03T11:22:04;14.03;;;4.30;;
4278;SDS011;2153;47.744;10.580;2023-04-03T11:24:37;12.87;;;3.97;;
4278;SDS011;2153;47.744;10.580;2023-04-03T11:27:08;17.00;;;4.40;;
4278;SDS011;2153;47.744;10.580;2023-04-03T11:29:42;13.23;;;4.23;;
4278;SDS011;2153;47.744;10.580;2023-04-03T11:32:20;16.53;;;5.13;;
4278;SDS011;2153;47.744;10.580;2023-04-03T11:35:06;14.57;;;5.53;;
4278;SDS011;2153;47.744;10.580;2023-04-03T11:37:37;16.10;;;5.70;;
4278;SDS011;2153;47.744;10.580;2023-04-03T11:40:06;15.47;;;5.20;;
4278;SDS011;2153;47.744;10.580;2023-04-03T11:42:40;13.90;;;4.30;;
4278;SDS011;2153;47.744;10.580;2023-04-03T11:45:15;14.70;;;5.20;;
4278;SDS011;2153;47.744;10.580;2023-04-03T11:47:54;16.63;;;5.17;;
4278;SDS011;2153;47.744;10.580;2023-04-03T11:50:30;13.47;;;4.23;;
4278;SDS011;2153;47.744;10.580;2023-04-03T11:56:00;18.57;;;5.27;;
4278;SDS011;2153;47.744;10.580;2023-04-03T11:59:15;14.67;;;4.70;;
4278;SDS011;2153;47.744;10.580;2023-04-03T12:01:47;15.70;;;5.40;;
4278;SDS011;2153;47.744;10.580;2023-04-03T12:04:17;17.10;;;5.60;;
4278;SDS011;2153;47.744;10.580;2023-04-03T12:06:49;14.43;;;4.40;;
4278;SDS011;2153;47.744;10.580;2023-04-03T12:09:24;13.50;;;4.13;;
4278;SDS011;2153;47.744;10.580;2023-04-03T12:12:21;16.10;;;5.30;;
4278;SDS011;2153;47.744;10.580;2023-04-03T12:14:54;14.57;;;4.33;;
4278;SDS011;2153;47.744;10.580;2023-04-03T12:17:22;15.40;;;5.43;;
4278;SDS011;2153;47.744;10.580;2023-04-03T12:19:54;13.73;;;4.10;;
4278;SDS011;2153;47.744;10.580;2023-04-03T12:22:20;12.87;;;4.17;;
4278;SDS011;2153;47.744;10.580;2023-04-03T12:24:48;17.57;;;4.87;;
4278;SDS011;2153;47.744;10.580;2023-04-03T12:32:51;13.87;;;3.93;;
4278;SDS011;2153;47.744;10.580;2023-04-03T12:35:34;15.77;;;4.30;;
4278;SDS011;2153;47.744;10.580;2023-04-03T12:38:17;16.83;;;4.90;;
4278;SDS011;2153;47.744;10.580;2023-04-03T12:41:13;14.50;;;4.50;;
4278;SDS011;2153;47.744;10.580;2023-04-03T12:44:06;15.60;;;5.20;;
4278;SDS011;2153;47.744;10.580;2023-04-03T12:46:47;18.53;;;5.80;;
4278;SDS011;2153;47.744;10.580;2023-04-03T12:49:20;18.23;;;5.50;;
4278;SDS011;2153;47.744;10.580;2023-04-03T12:51:58;17.33;;;4.53;;
4278;SDS011;2153;47.744;10.580;2023-04-03T12:54:27;14.23;;;4.70;;
4278;SDS011;2153;47.744;10.580;2023-04-03T12:57:10;14.73;;;5.37;;
4278;SDS011;2153;47.744;10.580;2023-04-03T12:59:38;16.40;;;4.90;;
4278;SDS011;2153;47.744;10.580;2023-04-03T13:02:10;13.73;;;5.10;;
4278;SDS011;2153;47.744;10.580;2023-04-03T13:04:48;15.20;;;5.10;;
4278;SDS011;2153;47.744;10.580;2023-04-03T13:07:20;14.80;;;4.53;;
4278;SDS011;2153;47.744;10.580;2023-04-03T13:09:57;14.00;;;4.70;;
4278;SDS011;2153;47.744;10.580;2023-04-03T13:12:25;17.60;;;5.77;;
4278;SDS011;2153;47.744;10.580;2023-04-03T13:14:52;14.97;;;5.20;;
4278;SDS011;2153;47.744;10.580;2023-04-03T13:17:21;18.60;;;5.17;;
4278;SDS011;2153;47.744;10.580;2023-04-03T13:19:48;16.03;;;4.03;;
4278;SDS011;2153;47.744;10.580;2023-04-03T13:22:23;15.00;;;4.50;;
4278;SDS011;2153;47.744;10.580;2023-04-03T13:24:54;19.63;;;4.03;;
4278;SDS011;2153;47.744;10.580;2023-04-03T13:27:24;14.90;;;4.20;;
4278;SDS011;2153;47.744;10.580;2023-04-03T13:29:51;15.97;;;4.87;;
4278;SDS011;2153;47.744;10.580;2023-04-03T13:32:21;14.27;;;4.00;;
4278;SDS011;2153;47.744;10.580;2023-04-03T13:34:49;15.43;;;4.80;;
4278;SDS011;2153;47.744;10.580;2023-04-03T13:37:21;18.40;;;5.93;;
4278;SDS011;2153;47.744;10.580;2023-04-03T13:39:56;17.90;;;5.30;;
4278;SDS011;2153;47.744;10.580;2023-04-03T13:42:27;16.50;;;6.10;;
4278;SDS011;2153;47.744;10.580;2023-04-03T13:45:09;16.70;;;5.43;;
4278;SDS011;2153;47.744;10.580;2023-04-03T13:47:45;19.87;;;5.53;;
4278;SDS011;2153;47.744;10.580;2023-04-03T13:50:14;14.00;;;4.43;;
4278;SDS011;2153;47.744;10.580;2023-04-03T13:52:46;14.70;;;4.80;;
4278;SDS011;2153;47.744;10.580;2023-04-03T13:55:16;16.20;;;5.07;;
4278;SDS011;2153;47.744;10.580;2023-04-03T13:57:48;15.10;;;4.93;;
4278;SDS011;2153;47.744;10.580;2023-04-03T14:00:35;15.53;;;5.43;;
4278;SDS011;2153;47.744;10.580;2023-04-03T14:03:11;19.40;;;5.40;;
4278;SDS011;2153;47.744;10.580;2023-04-03T14:05:39;19.17;;;4.90;;
4278;SDS011;2153;47.744;10.580;2023-04-03T14:08:07;14.63;;;4.63;;
4278;SDS011;2153;47.744;10.580;2023-04-03T14:10:35;14.03;;;4.70;;
4278;SDS011;2153;47.744;10.580;2023-04-03T14:13:02;16.27;;;4.83;;
4278;SDS011;2153;47.744;10.580;2023-04-03T14:15:30;18.90;;;5.70;;
4278;SDS011;2153;47.744;10.580;2023-04-03T14:17:57;15.23;;;5.57;;
4278;SDS011;2153;47.744;10.580;2023-04-03T14:20:25;16.50;;;5.50;;
4278;SDS011;2153;47.744;10.580;2023-04-03T14:22:53;16.07;;;6.60;;
4278;SDS011;2153;47.744;10.580;2023-04-03T14:25:21;17.07;;;5.70;;
4278;SDS011;2153;47.744;10.580;2023-04-03T14:27:49;14.37;;;5.77;;
4278;SDS011;2153;47.744;10.580;2023-04-03T14:30:18;15.40;;;5.87;;
4278;SDS011;2153;47.744;10.580;2023-04-03T14:32:47;14.77;;;5.30;;
4278;SDS011;2153;47.744;10.580;2023-04-03T14:35:14;16.27;;;6.10;;
4278;SDS011;2153;47.744;10.580;2023-04-03T14:37:41;22.63;;;8.30;;
4278;SDS011;2153;47.744;10.580;2023-04-03T14:40:11;19.50;;;7.23;;
4278;SDS011;2153;47.744;10.580;2023-04-03T14:42:41;19.80;;;5.40;;
4278;SDS011;2153;47.744;10.580;2023-04-03T14:45:09;14.30;;;5.20;;
4278;SDS011;2153;47.744;10.580;2023-04-03T14:47:39;15.83;;;5.70;;
4278;SDS011;2153;47.744;10.580;2023-04-03T14:50:11;18.40;;;5.23;;
4278;SDS011;2153;47.744;10.580;2023-04-03T14:52:40;15.50;;;5.40;;
4278;SDS011;2153;47.744;10.580;2023-04-03T14:55:08;16.87;;;4.90;;
4278;SDS011;2153;47.744;10.580;2023-04-03T14:57:37;14.87;;;5.07;;
4278;SDS011;2153;47.744;10.580;2023-04-03T15:00:10;14.03;;;5.40;;
4278;SDS011;2153;47.744;10.580;2023-04-03T15:02:40;14.47;;;5.53;;
4278;SDS011;2153;47.744;10.580;2023-04-03T15:05:07;16.33;;;5.27;;
4278;SDS011;2153;47.744;10.580;2023-04-03T15:07:36;17.40;;;4.40;;
4278;SDS011;2153;47.744;10.580;2023-04-03T15:10:09;14.50;;;4.40;;